Time;durP1;ratioP1;P1;durP2;ratioP2;P2;SDS_P1;SDS_P2;PMS_P1;PMS_P2;Temp;Humidity;BMP_temperature;BMP_pressure;BME280_temperature;BME280_humidity;BME280_pressure;Samples;Min_cycle;Max_cycle;Signal;HPM_P1;HPM_P2
2022/01/02 00:00:40;;;;;;;5.47;1.95;;;11.20;99.90;;;;;;5032676;28;20103;-80
2022/01/02 00:03:08;;;;;;;3.00;2.45;;;11.20;99.90;;;;;;5045738;28;20088;-77
2022/01/02 00:05:37;;;;;;;4.03;2.47;;;11.20;99.90;;;;;;5025711;28;20037;-82
2022/01/02 00:08:12;;;;;;;4.57;2.17;;;11.20;99.90;;;;;;5026856;28;20041;-82
2022/01/02 00:10:57;;;;;;;2.88;2.03;;;11.20;99.90;;;;;;5011787;28;20482;-79
2022/01/02 00:13:34;;;;;;;4.82;2.28;;;11.20;99.90;;;;;;5028606;28;20148;-76
2022/01/02 00:16:05;;;;;;;3.25;2.17;;;11.20;99.90;;;;;;5049113;28;20048;-79
2022/01/02 00:18:38;;;;;;;6.15;3.10;;;11.20;99.90;;;;;;5049279;28;20048;-79
2022/01/02 00:21:10;;;;;;;8.80;2.60;;;11.20;99.90;;;;;;5050126;28;20044;-77
2022/01/02 00:26:34;;;;;;;2.92;2.05;;;11.30;99.90;;;;;;5048631;28;20057;-79
2022/01/02 00:29:05;;;;;;;5.35;2.40;;;11.30;99.90;;;;;;5050984;28;20057;-81
2022/01/02 00:31:32;;;;;;;8.73;2.97;;;11.30;99.90;;;;;;5049588;28;20050;-80
2022/01/02 00:33:59;;;;;;;3.55;2.28;;;11.40;99.90;;;;;;5041169;28;20103;-79
2022/01/02 00:36:25;;;;;;;3.35;1.70;;;11.30;99.90;;;;;;5032508;28;20075;-80
2022/01/02 00:38:51;;;;;;;3.72;2.38;;;11.40;99.90;;;;;;5048691;28;20041;-80
2022/01/02 00:41:25;;;;;;;4.50;2.83;;;11.30;99.90;;;;;;5027819;28;20037;-78
2022/01/02 00:44:25;;;;;;;3.55;2.50;;;11.40;99.90;;;;;;5041291;28;20503;-78
2022/01/02 00:47:11;;;;;;;4.80;2.13;;;11.30;99.90;;;;;;5062125;28;20060;-77
2022/01/02 00:49:40;;;;;;;5.43;2.63;;;11.40;99.90;;;;;;5047621;28;20053;-80
2022/01/02 00:52:36;;;;;;;4.63;2.70;;;11.40;99.90;;;;;;5044631;28;20513;-75
2022/01/02 00:55:05;;;;;;;4.60;1.83;;;11.30;99.90;;;;;;5044955;28;20596;-79
2022/01/02 00:57:34;;;;;;;4.57;2.53;;;11.30;99.90;;;;;;5044905;28;20730;-80
2022/01/02 01:00:19;;;;;;;5.40;3.00;;;11.30;99.90;;;;;;5051353;28;20051;-83
2022/01/02 01:02:46;;;;;;;3.97;2.40;;;11.40;99.90;;;;;;5030753;28;20037;-80
2022/01/02 01:05:25;;;;;;;5.38;2.58;;;11.40;99.90;;;;;;5037958;28;20048;-76
2022/01/02 01:07:57;;;;;;;4.28;2.45;;;11.40;99.90;;;;;;5043892;28;20037;-78
2022/01/02 01:10:26;;;;;;;2.47;1.80;;;11.50;99.90;;;;;;5045519;28;20052;-77
2022/01/02 01:12:54;;;;;;;4.88;2.47;;;11.40;99.90;;;;;;5048651;28;20059;-78
2022/01/02 01:15:22;;;;;;;3.28;2.40;;;11.40;99.90;;;;;;5050491;28;20071;-78
2022/01/02 01:17:49;;;;;;;6.65;3.65;;;11.40;99.90;;;;;;5050019;28;20382;-79
2022/01/02 01:20:16;;;;;;;4.82;2.58;;;11.40;99.90;;;;;;5029826;28;20044;-80
2022/01/02 01:22:42;;;;;;;6.53;2.90;;;11.40;99.90;;;;;;5048118;28;20045;-79
2022/01/02 01:25:13;;;;;;;4.47;2.30;;;11.30;99.90;;;;;;5049976;28;20049;-76
2022/01/02 01:27:39;;;;;;;6.88;3.00;;;11.30;99.90;;;;;;5046653;28;20118;-81
2022/01/02 01:30:06;;;;;;;5.07;2.85;;;11.30;99.90;;;;;;5050267;28;20049;-77
2022/01/02 01:32:32;;;;;;;7.78;2.65;;;11.30;99.90;;;;;;5050521;28;20037;-80
2022/01/02 01:34:57;;;;;;;2.88;2.50;;;11.30;99.90;;;;;;5047462;28;20041;-79
2022/01/02 01:37:23;;;;;;;6.03;2.85;;;11.30;99.90;;;;;;5044321;28;20053;-82
2022/01/02 01:39:49;;;;;;;5.30;3.45;;;11.30;99.90;;;;;;5073144;28;20049;-78
2022/01/02 01:42:15;;;;;;;4.57;2.42;;;11.30;99.90;;;;;;5045762;28;20071;-83
2022/01/02 01:45:03;;;;;;;6.18;2.63;;;11.30;99.90;;;;;;5029448;28;20040;-80
2022/01/02 01:47:27;;;;;;;4.25;2.92;;;11.30;99.90;;;;;;5042716;28;20107;-80
2022/01/02 01:49:53;;;;;;;3.72;2.80;;;11.30;99.90;;;;;;5057764;28;20059;-77
2022/01/02 01:52:19;;;;;;;5.85;3.42;;;11.30;99.90;;;;;;5029880;28;20041;-77
2022/01/02 01:54:44;;;;;;;3.70;2.72;;;11.30;99.90;;;;;;5040960;28;20116;-80
2022/01/02 01:57:11;;;;;;;8.13;3.83;;;11.30;99.90;;;;;;5054447;28;20355;-77
2022/01/02 01:59:37;;;;;;;3.55;2.67;;;11.30;99.90;;;;;;5053789;28;20574;-79
2022/01/02 02:02:03;;;;;;;5.30;3.28;;;11.30;99.90;;;;;;5038003;28;20108;-79
2022/01/02 02:04:29;;;;;;;6.63;4.25;;;11.30;99.90;;;;;;5053600;28;20053;-79
2022/01/02 02:06:57;;;;;;;5.10;2.60;;;11.20;99.90;;;;;;5031331;28;20052;-77
2022/01/02 02:09:28;;;;;;;6.57;3.08;;;11.20;99.90;;;;;;5047181;28;20041;-81
2022/01/02 02:11:59;;;;;;;4.13;2.88;;;11.20;99.90;;;;;;5047553;28;20041;-77
2022/01/02 02:14:25;;;;;;;3.97;3.47;;;11.20;99.90;;;;;;5051421;28;20056;-80
2022/01/02 02:16:51;;;;;;;;;;;11.20;99.90;;;;;;5037128;28;20045;-80
2022/01/02 02:19:17;;;;;;;6.78;3.58;;;11.20;99.90;;;;;;5065866;28;19917;-82
2022/01/02 02:21:43;;;;;;;5.63;2.97;;;11.20;99.90;;;;;;5035304;28;20147;-78
2022/01/02 02:24:09;;;;;;;8.00;3.42;;;11.20;99.90;;;;;;5033706;28;20393;-79
2022/01/02 02:26:37;;;;;;;7.93;4.03;;;11.20;99.90;;;;;;5052159;28;20056;-81
2022/01/02 02:29:04;;;;;;;4.32;2.53;;;11.10;99.90;;;;;;5047626;28;20037;-79
2022/01/02 02:31:30;;;;;;;4.25;2.72;;;11.20;99.90;;;;;;5053559;28;20045;-80
2022/01/02 02:33:56;;;;;;;;;;;11.10;99.90;;;;;;5053466;28;20041;-79
2022/01/02 02:36:22;;;;;;;6.43;4.15;;;11.10;99.90;;;;;;5082298;28;19921;-80
2022/01/02 02:38:48;;;;;;;8.35;3.40;;;11.10;99.90;;;;;;5045686;28;20029;-81
2022/01/02 02:41:13;;;;;;;6.45;3.80;;;11.10;99.90;;;;;;5050413;28;20091;-80
2022/01/02 02:49:05;;;;;;;4.57;3.42;;;11.00;99.90;;;;;;5052858;28;20052;-79
2022/01/02 02:54:08;;;;;;;11.27;4.20;;;11.00;99.90;;;;;;5052599;28;20368;-82
2022/01/02 02:56:55;;;;;;;5.63;3.58;;;11.00;99.90;;;;;;5044579;28;20059;-81
2022/01/02 02:59:23;;;;;;;5.93;3.75;;;10.90;99.90;;;;;;5053502;28;20049;-83
2022/01/02 03:01:50;;;;;;;4.75;3.00;;;10.90;99.90;;;;;;5052188;28;20049;-82
2022/01/02 03:04:16;;;;;;;4.72;3.75;;;10.90;99.90;;;;;;5038183;28;20037;-83
2022/01/02 03:06:41;;;;;;;8.48;3.90;;;10.90;99.90;;;;;;5035757;28;20459;-82
2022/01/02 03:09:09;;;;;;;4.35;3.17;;;10.90;99.90;;;;;;5051761;28;20036;-84
2022/01/02 03:11:41;;;;;;;3.97;3.08;;;10.80;99.90;;;;;;5041467;28;20070;-84
2022/01/02 03:14:09;;;;;;;5.32;3.38;;;10.80;99.90;;;;;;5051527;28;20037;-82
2022/01/02 03:16:35;;;;;;;6.22;3.47;;;10.80;99.90;;;;;;5050670;28;20141;-83
2022/01/02 03:19:00;;;;;;;5.00;3.72;;;10.80;99.90;;;;;;5043568;28;20519;-82
2022/01/02 03:21:26;;;;;;;7.75;3.80;;;10.80;99.90;;;;;;5031179;28;20076;-83
2022/01/02 03:23:52;;;;;;;3.28;2.63;;;10.80;99.90;;;;;;5035340;28;20073;-83
2022/01/02 03:26:21;;;;;;;4.88;3.42;;;10.80;99.90;;;;;;5050881;28;20087;-84
2022/01/02 03:28:48;;;;;;;5.95;4.40;;;10.80;99.90;;;;;;5052444;28;20529;-84
2022/01/02 03:31:14;;;;;;;5.88;3.10;;;10.80;99.90;;;;;;5034566;28;20049;-84
2022/01/02 03:33:40;;;;;;;;;;;10.80;99.90;;;;;;5033342;28;20118;-82
2022/01/02 03:36:12;;;;;;;4.35;3.80;;;10.70;99.90;;;;;;5063931;28;20344;-83
2022/01/02 03:38:38;;;;;;;4.15;3.00;;;10.70;99.90;;;;;;5041796;28;20037;-83
2022/01/02 03:41:04;;;;;;;4.85;3.50;;;10.80;99.90;;;;;;5057573;28;20041;-82
2022/01/02 03:43:30;;;;;;;8.32;5.10;;;10.80;99.90;;;;;;5033802;28;20045;-83
2022/01/02 03:45:55;;;;;;;7.38;4.00;;;10.70;99.90;;;;;;5034805;28;20058;-83
2022/01/02 03:48:21;;;;;;;7.70;4.20;;;10.80;99.90;;;;;;5051151;28;20037;-82
2022/01/02 03:50:47;;;;;;;6.25;3.80;;;10.80;99.90;;;;;;5059105;28;20047;-82
2022/01/02 03:53:12;;;;;;;6.25;3.72;;;10.70;99.90;;;;;;5033818;28;20497;-83
2022/01/02 03:55:39;;;;;;;6.65;3.80;;;10.70;99.90;;;;;;5035384;28;20068;-81
2022/01/02 03:58:05;;;;;;;4.65;3.63;;;10.70;99.90;;;;;;5026794;28;20061;-81
2022/01/02 04:00:31;;;;;;;5.85;4.05;;;10.70;99.90;;;;;;5040493;28;20037;-80
2022/01/02 04:02:56;;;;;;;6.28;3.63;;;10.70;99.90;;;;;;5024168;28;20033;-82
2022/01/02 04:05:22;;;;;;;6.45;2.85;;;10.80;99.90;;;;;;5051072;28;20178;-82
2022/01/02 04:07:48;;;;;;;5.10;3.53;;;10.80;99.90;;;;;;5027110;28;20049;-82
2022/01/02 04:10:18;;;;;;;8.07;3.95;;;10.80;99.90;;;;;;5032065;28;20448;-82
2022/01/02 04:12:49;;;;;;;11.02;3.65;;;10.80;99.90;;;;;;5049909;28;20105;-80
2022/01/02 04:15:15;;;;;;;7.65;4.10;;;10.80;99.90;;;;;;5033302;28;20052;-78
2022/01/02 04:17:42;;;;;;;4.97;3.63;;;10.80;99.90;;;;;;5046009;28;20049;-81
2022/01/02 04:20:10;;;;;;;8.05;4.25;;;10.80;99.90;;;;;;5043767;28;20047;-84
2022/01/02 04:22:36;;;;;;;6.15;3.45;;;10.80;99.90;;;;;;5048381;28;20044;-81
2022/01/02 04:25:03;;;;;;;7.95;4.28;;;10.80;99.90;;;;;;5041427;28;20051;-82
2022/01/02 04:27:29;;;;;;;10.98;4.40;;;10.90;99.90;;;;;;5068833;28;20482;-84
2022/01/02 04:29:55;;;;;;;4.00;3.63;;;10.90;99.90;;;;;;5045719;28;20043;-83
2022/01/02 04:32:20;;;;;;;6.82;4.10;;;10.90;99.90;;;;;;5048317;28;20037;-83
2022/01/02 04:34:46;;;;;;;8.73;4.22;;;10.90;99.90;;;;;;5050970;28;20037;-82
2022/01/02 04:37:12;;;;;;;7.00;4.05;;;10.90;99.90;;;;;;5045608;28;20044;-82
2022/01/02 04:39:39;;;;;;;3.88;2.60;;;10.90;99.90;;;;;;5047569;28;20043;-84
2022/01/02 04:42:05;;;;;;;8.88;4.22;;;10.90;99.90;;;;;;5051369;28;20120;-85
2022/01/02 04:44:31;;;;;;;6.18;3.67;;;10.90;99.90;;;;;;5019943;28;20437;-84
2022/01/02 04:46:57;;;;;;;4.55;3.28;;;10.90;99.90;;;;;;5045604;28;20088;-82
2022/01/02 04:49:23;;;;;;;5.05;3.70;;;10.90;99.90;;;;;;5029626;28;20039;-83
2022/01/02 04:51:48;;;;;;;6.22;3.95;;;11.00;99.90;;;;;;5043459;28;20373;-81
2022/01/02 04:54:14;;;;;;;4.32;3.42;;;11.00;99.90;;;;;;5049196;28;20040;-83
2022/01/02 04:56:40;;;;;;;11.40;3.72;;;11.00;99.90;;;;;;5028411;28;20120;-84
2022/01/02 04:59:06;;;;;;;;;;;11.00;99.90;;;;;;5049247;28;20492;-81
2022/01/02 05:01:32;;;;;;;5.05;3.90;;;11.00;99.90;;;;;;5050602;28;19917;-83
2022/01/02 05:03:58;;;;;;;11.02;3.97;;;11.00;99.90;;;;;;5047776;28;20391;-84
2022/01/02 05:06:23;;;;;;;8.98;4.45;;;11.00;99.90;;;;;;5041553;28;20386;-81
2022/01/02 05:08:49;;;;;;;7.78;3.85;;;11.00;99.90;;;;;;5052733;28;20410;-82
2022/01/02 05:11:15;;;;;;;10.82;4.25;;;11.00;99.90;;;;;;5048351;28;20084;-83
2022/01/02 05:13:41;;;;;;;6.07;4.28;;;11.00;99.90;;;;;;5048814;28;20046;-82
2022/01/02 05:16:06;;;;;;;;;;;11.10;99.90;;;;;;5048715;28;20084;-82
2022/01/02 05:18:32;;;;;;;6.97;3.30;;;11.10;99.90;;;;;;5022530;28;20044;-82
2022/01/02 05:20:58;;;;;;;4.70;3.20;;;11.10;99.90;;;;;;5051928;28;20041;-81
2022/01/02 05:23:24;;;;;;;3.75;3.20;;;11.10;99.90;;;;;;5047927;28;20041;-83
2022/01/02 05:25:51;;;;;;;14.27;3.35;;;11.10;99.90;;;;;;5075402;28;20079;-86
2022/01/02 05:28:17;;;;;;;9.65;2.92;;;11.10;99.90;;;;;;5050343;28;20120;-81
2022/01/02 05:30:43;;;;;;;7.70;3.85;;;11.10;99.90;;;;;;5039912;28;20591;-84
2022/01/02 05:33:10;;;;;;;4.68;2.97;;;11.10;99.90;;;;;;5048875;28;20048;-79
2022/01/02 05:35:37;;;;;;;5.72;3.65;;;11.10;99.90;;;;;;5029377;28;20056;-82
2022/01/02 05:38:03;;;;;;;5.85;3.90;;;11.00;99.90;;;;;;5033803;28;20051;-80
2022/01/02 05:40:33;;;;;;;;;;;11.10;99.90;;;;;;5050556;28;20045;-81
2022/01/02 05:43:04;;;;;;;6.63;4.15;;;11.10;99.90;;;;;;5049586;28;19982;-81
2022/01/02 05:45:31;;;;;;;8.23;3.88;;;11.10;99.90;;;;;;5050148;28;20045;-79
2022/01/02 05:47:57;;;;;;;4.85;2.92;;;11.10;99.90;;;;;;5041588;28;20095;-80
2022/01/02 05:50:24;;;;;;;10.27;4.30;;;11.10;99.90;;;;;;5050610;28;20126;-82
2022/01/02 05:52:50;;;;;;;8.13;3.22;;;11.10;99.90;;;;;;5051418;28;20443;-81
2022/01/02 05:55:16;;;;;;;10.48;3.35;;;11.10;99.90;;;;;;5065296;28;20106;-80
2022/01/02 05:57:42;;;;;;;;;;;11.10;99.90;;;;;;5051991;28;20049;-83
2022/01/02 06:00:09;;;;;;;4.95;2.80;;;11.10;99.90;;;;;;5075516;28;19923;-79
2022/01/02 06:02:34;;;;;;;3.95;2.67;;;11.10;99.90;;;;;;5043858;28;20072;-78
2022/01/02 06:05:03;;;;;;;8.00;2.72;;;11.10;99.90;;;;;;5047201;28;20486;-84
2022/01/02 06:07:33;;;;;;;5.35;2.67;;;11.10;99.90;;;;;;5043454;28;20103;-76
2022/01/02 06:10:03;;;;;;;5.20;2.75;;;11.10;99.90;;;;;;5046926;28;20051;-82
2022/01/02 06:12:29;;;;;;;9.07;2.38;;;11.20;99.90;;;;;;5047047;28;20102;-83
2022/01/02 06:14:54;;;;;;;3.00;2.20;;;11.20;99.90;;;;;;5031741;28;20437;-83
2022/01/02 06:17:20;;;;;;;7.32;3.03;;;11.20;99.90;;;;;;5040968;28;20037;-86
2022/01/02 06:19:46;;;;;;;3.90;2.42;;;11.20;99.90;;;;;;5046407;28;20041;-83
2022/01/02 06:22:11;;;;;;;7.85;2.90;;;11.20;99.90;;;;;;5046605;28;20098;-85
2022/01/02 06:24:37;;;;;;;3.28;2.38;;;11.20;99.90;;;;;;5048158;28;20120;-83
2022/01/02 06:27:03;;;;;;;5.47;2.72;;;11.20;99.90;;;;;;5050662;28;20049;-81
2022/01/02 06:29:29;;;;;;;3.78;1.88;;;11.20;99.90;;;;;;5050844;28;20540;-78
2022/01/02 06:31:56;;;;;;;11.85;3.22;;;11.30;99.90;;;;;;5065183;28;20043;-81
2022/01/02 06:34:22;;;;;;;3.88;2.38;;;11.30;99.90;;;;;;5032313;28;20471;-79
2022/01/02 06:36:48;;;;;;;5.93;2.95;;;11.30;99.90;;;;;;5047730;28;20071;-79
2022/01/02 06:39:13;;;;;;;3.45;2.47;;;11.30;99.90;;;;;;5043298;28;20037;-80
2022/01/02 06:41:39;;;;;;;2.58;2.10;;;11.30;99.90;;;;;;5030330;28;20041;-83
2022/01/02 06:44:05;;;;;;;8.52;3.17;;;11.30;99.90;;;;;;5080000;28;20091;-81
2022/01/02 06:46:30;;;;;;;4.20;2.63;;;11.30;99.90;;;;;;5065555;28;20045;-78
2022/01/02 06:48:56;;;;;;;4.22;2.65;;;11.30;99.90;;;;;;5047298;28;20514;-82
2022/01/02 06:51:22;;;;;;;6.45;2.83;;;11.40;99.90;;;;;;5034795;28;20623;-85
2022/01/02 06:53:47;;;;;;;4.53;2.13;;;11.30;99.90;;;;;;5051633;28;20041;-83
2022/01/02 06:56:13;;;;;;;6.15;2.08;;;11.40;99.90;;;;;;5035667;28;20419;-79
2022/01/02 06:58:40;;;;;;;5.80;2.42;;;11.40;99.90;;;;;;5047153;28;20049;-77
2022/01/02 07:01:06;;;;;;;3.80;2.53;;;11.40;99.90;;;;;;5056734;28;20117;-85
2022/01/02 07:03:33;;;;;;;5.20;2.05;;;11.40;99.90;;;;;;5052916;28;20124;-80
2022/01/02 07:06:00;;;;;;;4.88;2.22;;;11.40;99.90;;;;;;5035656;28;20043;-85
2022/01/02 07:08:28;;;;;;;6.65;2.58;;;11.40;99.90;;;;;;5049676;28;20094;-83
2022/01/02 07:10:55;;;;;;;5.15;2.20;;;11.50;99.90;;;;;;5050827;28;20482;-82
2022/01/02 07:13:21;;;;;;;2.63;1.88;;;11.50;99.90;;;;;;5044114;28;20053;-82
2022/01/02 07:15:47;;;;;;;2.53;1.98;;;11.50;99.90;;;;;;5051731;28;20041;-84
2022/01/02 07:18:13;;;;;;;3.42;1.75;;;11.50;99.90;;;;;;5048762;28;20067;-82
2022/01/02 07:20:38;;;;;;;4.93;1.50;;;11.50;99.90;;;;;;5052644;28;20110;-82
2022/01/02 07:23:04;;;;;;;3.53;2.10;;;11.50;99.90;;;;;;5033670;28;20375;-78
2022/01/02 07:25:30;;;;;;;1.65;1.30;;;11.60;99.90;;;;;;5060035;28;20049;-84
2022/01/02 07:27:55;;;;;;;3.58;1.85;;;11.60;99.90;;;;;;5053120;28;20068;-83
2022/01/02 07:30:21;;;;;;;3.28;1.60;;;11.60;99.90;;;;;;5052181;28;20059;-80
2022/01/02 07:32:47;;;;;;;1.85;1.60;;;11.60;99.90;;;;;;5052287;28;20045;-81
2022/01/02 07:35:13;;;;;;;4.97;2.03;;;11.70;99.90;;;;;;5056178;28;20045;-81
2022/01/02 07:37:38;;;;;;;2.72;1.85;;;11.70;99.90;;;;;;5052556;28;20086;-80
2022/01/02 07:40:05;;;;;;;1.80;1.42;;;11.80;99.90;;;;;;5052578;28;20056;-83
2022/01/02 07:42:31;;;;;;;4.00;2.17;;;11.80;99.90;;;;;;5053481;28;20045;-80
2022/01/02 07:44:58;;;;;;;3.65;1.85;;;11.80;99.90;;;;;;5046102;28;20043;-77
2022/01/02 07:47:23;;;;;;;3.20;1.92;;;11.80;99.90;;;;;;5024582;28;20133;-83
2022/01/02 07:49:49;;;;;;;4.55;2.17;;;11.80;99.90;;;;;;5063600;28;20132;-83
2022/01/02 07:52:15;;;;;;;7.25;1.65;;;11.80;99.90;;;;;;5051765;28;20045;-84
2022/01/02 07:54:41;;;;;;;6.07;1.85;;;11.80;99.90;;;;;;5041613;28;20129;-83
2022/01/02 07:57:07;;;;;;;2.67;2.05;;;11.70;99.90;;;;;;5053357;28;20112;-80
2022/01/02 07:59:33;;;;;;;4.80;1.63;;;11.70;99.90;;;;;;5046413;28;20124;-80
2022/01/02 08:01:58;;;;;;;2.38;2.17;;;11.70;99.90;;;;;;5041896;28;20036;-80
2022/01/02 08:04:24;;;;;;;4.20;2.28;;;11.70;99.90;;;;;;5048264;28;20119;-78
2022/01/02 08:06:50;;;;;;;2.67;1.70;;;11.80;99.90;;;;;;5035609;28;20068;-82
2022/01/02 08:09:15;;;;;;;5.38;2.65;;;11.70;99.90;;;;;;5062950;28;22606;-81
2022/01/02 08:11:41;;;;;;;4.32;2.55;;;11.70;99.90;;;;;;5045950;28;20041;-83
2022/01/02 08:14:07;;;;;;;6.65;1.88;;;11.70;99.90;;;;;;5026529;28;20120;-85
2022/01/02 08:16:34;;;;;;;;;;;11.60;99.90;;;;;;5051295;28;20106;-83
2022/01/02 08:19:00;;;;;;;1.70;1.30;;;11.60;99.90;;;;;;5061227;28;19974;-83
2022/01/02 08:21:25;;;;;;;;;;;11.50;99.90;;;;;;5054211;28;20040;-83
2022/01/02 08:23:51;;;;;;;3.75;1.80;;;11.50;99.90;;;;;;5051356;28;19920;-81
2022/01/02 08:26:17;;;;;;;3.28;2.67;;;11.40;99.90;;;;;;5050157;28;20045;-84
2022/01/02 08:28:42;;;;;;;3.47;2.75;;;11.40;99.90;;;;;;5051085;28;20060;-83
2022/01/02 08:31:08;;;;;;;5.50;1.80;;;11.40;99.90;;;;;;5031922;28;20202;-85
2022/01/02 08:33:34;;;;;;;7.55;2.65;;;11.40;99.90;;;;;;5057195;28;20132;-85
2022/01/02 08:35:59;;;;;;;3.55;1.60;;;11.40;99.90;;;;;;5048097;28;20052;-84
2022/01/02 08:38:27;;;;;;;6.97;2.30;;;11.30;99.90;;;;;;5041829;28;20072;-86
2022/01/02 08:40:53;;;;;;;3.40;1.80;;;11.30;99.90;;;;;;5050636;28;20479;-86
2022/01/02 08:43:19;;;;;;;5.13;2.42;;;11.30;99.90;;;;;;5051137;28;20052;-84
2022/01/02 08:45:45;;;;;;;4.72;2.92;;;11.30;99.90;;;;;;5050031;28;20044;-84
2022/01/02 08:48:11;;;;;;;4.10;1.98;;;11.30;99.90;;;;;;5018272;28;20055;-85
2022/01/02 08:50:36;;;;;;;4.40;2.75;;;11.30;99.90;;;;;;5050590;28;20041;-83
2022/01/02 08:53:02;;;;;;;5.13;2.33;;;11.30;99.90;;;;;;5051000;28;20045;-78
2022/01/02 08:55:28;;;;;;;3.08;2.20;;;11.30;99.90;;;;;;5041333;28;20497;-83
2022/01/02 08:57:54;;;;;;;9.65;2.72;;;11.30;99.90;;;;;;5070283;28;20037;-82
2022/01/02 09:00:19;;;;;;;3.60;1.77;;;11.30;99.90;;;;;;5027355;28;20041;-83
2022/01/02 09:02:45;;;;;;;3.17;2.28;;;11.30;99.90;;;;;;5053574;28;20048;-86
2022/01/02 09:05:11;;;;;;;5.97;2.70;;;11.30;99.90;;;;;;5029173;28;20095;-84
2022/01/02 09:07:37;;;;;;;2.65;1.85;;;11.30;99.90;;;;;;5029745;28;20041;-82
2022/01/02 09:10:04;;;;;;;5.38;2.28;;;11.20;99.90;;;;;;5018751;28;20043;-83
2022/01/02 09:12:29;;;;;;;3.67;1.80;;;11.20;99.90;;;;;;5051324;28;20075;-82
2022/01/02 09:14:55;;;;;;;6.00;2.47;;;11.20;99.90;;;;;;5038402;28;20045;-83
2022/01/02 09:17:21;;;;;;;2.30;1.77;;;11.20;99.90;;;;;;5061410;28;20045;-84
2022/01/02 09:19:48;;;;;;;2.20;1.67;;;11.20;99.90;;;;;;5048526;28;20040;-83
2022/01/02 09:22:14;;;;;;;3.92;1.70;;;11.20;99.90;;;;;;5044377;28;20048;-81
2022/01/02 09:24:40;;;;;;;1.50;1.27;;;11.00;99.90;;;;;;5049562;28;20033;-82
2022/01/02 09:27:07;;;;;;;3.10;1.88;;;11.10;99.90;;;;;;5045080;28;20049;-82
2022/01/02 09:29:32;;;;;;;2.72;1.83;;;11.10;99.90;;;;;;5046231;28;20098;-83
2022/01/02 09:31:59;;;;;;;6.85;2.00;;;11.00;99.90;;;;;;5017119;28;20037;-84
2022/01/02 09:34:24;;;;;;;;;;;11.10;99.90;;;;;;5049819;28;20064;-82
2022/01/02 09:36:50;;;;;;;4.70;3.25;;;11.10;99.90;;;;;;5077292;28;20365;-85
2022/01/02 09:39:16;;;;;;;2.97;2.03;;;11.10;99.90;;;;;;5017335;28;20466;-85
2022/01/02 09:41:41;;;;;;;5.40;2.80;;;10.80;99.90;;;;;;5047378;28;20127;-85
2022/01/02 09:44:08;;;;;;;4.50;2.50;;;11.00;99.90;;;;;;5048033;28;20482;-86
2022/01/02 09:46:34;;;;;;;;;;;11.00;99.90;;;;;;5048386;28;20126;-85
2022/01/02 09:49:01;;;;;;;7.30;2.73;;;11.00;99.90;;;;;;5033622;28;19916;-85
2022/01/02 09:51:27;;;;;;;3.53;2.58;;;11.00;99.90;;;;;;5042062;28;20041;-85
2022/01/02 09:53:55;;;;;;;4.10;2.45;;;11.10;99.90;;;;;;5044181;28;20047;-80
2022/01/02 09:56:22;;;;;;;3.53;2.78;;;11.00;99.90;;;;;;5032969;28;20052;-83
2022/01/02 09:58:47;;;;;;;4.00;2.85;;;11.00;99.90;;;;;;5047780;28;20033;-82
2022/01/02 10:01:19;;;;;;;2.72;2.33;;;11.10;99.90;;;;;;5030661;28;20061;-82
2022/01/02 10:03:50;;;;;;;4.32;3.05;;;11.00;99.90;;;;;;5048755;28;20482;-84
2022/01/02 10:06:16;;;;;;;6.05;3.10;;;11.00;99.90;;;;;;5047033;28;20045;-83
2022/01/02 10:08:43;;;;;;;5.35;3.47;;;11.00;99.90;;;;;;5062173;28;20037;-81
2022/01/02 10:11:20;;;;;;;6.13;3.20;;;11.00;99.90;;;;;;5010533;28;20041;-82
2022/01/02 10:13:49;;;;;;;5.45;3.25;;;11.00;99.90;;;;;;5049902;28;20733;-83
2022/01/02 10:16:36;;;;;;;4.75;3.42;;;11.00;99.90;;;;;;5049631;28;20051;-81
2022/01/02 10:19:21;;;;;;;;;;;11.00;99.90;;;;;;5050913;28;20037;-81
2022/01/02 10:22:07;;;;;;;4.88;3.28;;;11.00;99.90;;;;;;5045740;28;19924;-83
2022/01/02 10:24:37;;;;;;;5.35;2.95;;;11.00;99.90;;;;;;5050744;28;20083;-82
2022/01/02 10:27:03;;;;;;;5.20;3.65;;;11.00;99.90;;;;;;5041578;28;20061;-85
2022/01/02 10:29:40;;;;;;;4.40;3.20;;;11.00;99.90;;;;;;5071695;28;20056;-84
2022/01/02 10:32:26;;;;;;;8.00;3.47;;;11.00;99.90;;;;;;5047506;28;20073;-84
2022/01/02 10:34:53;;;;;;;5.05;2.88;;;11.00;99.90;;;;;;5053010;28;20045;-85
2022/01/02 10:37:26;;;;;;;6.97;4.28;;;11.00;99.90;;;;;;5052302;28;20413;-86
2022/01/02 10:39:52;;;;;;;6.30;4.32;;;11.00;99.90;;;;;;5036619;28;20051;-84
2022/01/02 10:42:19;;;;;;;8.05;3.72;;;11.10;99.90;;;;;;5053780;28;20080;-83
2022/01/02 10:44:45;;;;;;;5.90;4.10;;;11.10;99.90;;;;;;5043290;28;20120;-82
2022/01/02 10:47:26;;;;;;;5.93;4.10;;;11.20;99.90;;;;;;5036713;28;20124;-82
2022/01/02 10:50:01;;;;;;;8.60;4.30;;;11.20;99.90;;;;;;5081179;28;20101;-83
2022/01/02 10:52:35;;;;;;;5.47;3.53;;;11.20;99.90;;;;;;5066017;28;20084;-81
2022/01/02 10:55:16;;;;;;;5.72;3.70;;;11.20;99.90;;;;;;5050625;28;20037;-80
2022/01/02 10:57:43;;;;;;;8.95;4.93;;;11.30;99.90;;;;;;5053526;28;20045;-81
2022/01/02 11:00:10;;;;;;;7.55;3.20;;;11.30;99.90;;;;;;5053183;28;20045;-81
2022/01/02 11:02:37;;;;;;;9.50;5.28;;;11.30;99.90;;;;;;5052660;28;20110;-82
2022/01/02 11:05:10;;;;;;;4.97;3.58;;;11.40;99.90;;;;;;5043128;28;20103;-82
2022/01/02 11:07:41;;;;;;;5.07;3.35;;;11.40;99.90;;;;;;5033040;28;20053;-80
2022/01/02 11:10:13;;;;;;;9.52;3.45;;;11.40;99.90;;;;;;5048741;28;20036;-78
2022/01/02 11:12:39;;;;;;;3.25;2.30;;;11.40;99.90;;;;;;5025413;28;20105;-82
2022/01/02 11:15:07;;;;;;;7.13;3.85;;;11.50;99.90;;;;;;5058975;28;20106;-79
2022/01/02 11:17:35;;;;;;;3.22;2.25;;;11.50;99.90;;;;;;5066863;28;20037;-76
2022/01/02 11:20:04;;;;;;;3.65;2.63;;;11.60;99.90;;;;;;5041205;28;20120;-80
2022/01/02 11:22:38;;;;;;;5.10;2.92;;;11.60;99.90;;;;;;5067356;28;20048;-77
2022/01/02 11:25:29;;;;;;;6.53;2.58;;;11.60;99.90;;;;;;5035722;28;20124;-79
2022/01/02 11:28:03;;;;;;;10.25;3.17;;;11.60;99.90;;;;;;5054056;28;20351;-77
2022/01/02 11:30:35;;;;;;;4.47;2.97;;;11.60;99.90;;;;;;5061064;28;20111;-76
2022/01/02 11:33:13;;;;;;;5.43;2.15;;;11.70;99.90;;;;;;5048958;28;20074;-83
2022/01/02 11:35:41;;;;;;;4.28;2.25;;;11.70;99.90;;;;;;5048003;28;20053;-80
2022/01/02 11:38:07;;;;;;;6.00;2.47;;;11.80;99.90;;;;;;5054303;28;20044;-80
2022/01/02 11:40:56;;;;;;;3.03;2.03;;;11.70;99.90;;;;;;5054955;28;20040;-78
2022/01/02 11:43:49;;;;;;;2.25;1.88;;;11.80;99.90;;;;;;5032918;28;20041;-78
2022/01/02 11:46:27;;;;;;;2.00;1.73;;;11.80;99.90;;;;;;5065112;28;20277;-77
2022/01/02 11:49:05;;;;;;;7.32;2.80;;;10.90;99.90;;;;;;5050870;28;20032;-80
2022/01/02 11:51:51;;;;;;;3.05;2.13;;;11.70;99.90;;;;;;5052475;28;20032;-77
2022/01/02 11:54:32;;;;;;;4.35;2.38;;;11.80;99.90;;;;;;5047129;28;20038;-77
2022/01/02 11:57:00;;;;;;;3.55;2.28;;;11.70;99.90;;;;;;5060120;28;20063;-79
2022/01/02 11:59:44;;;;;;;5.55;2.38;;;11.70;99.90;;;;;;5050963;28;20033;-77
2022/01/02 12:02:13;;;;;;;5.78;2.58;;;11.70;99.90;;;;;;5045076;28;20141;-81
2022/01/02 12:07:41;;;;;;;4.53;2.13;;;11.70;99.90;;;;;;5051920;28;20052;-77
2022/01/02 12:10:16;;;;;;;3.72;2.63;;;11.70;99.90;;;;;;5047275;28;20029;-81
2022/01/02 12:13:05;;;;;;;3.15;2.25;;;11.70;99.90;;;;;;5051092;28;20048;-80
2022/01/02 12:15:31;;;;;;;4.35;2.10;;;11.70;99.90;;;;;;5075184;28;20068;-82
2022/01/02 12:18:12;;;;;;;9.57;2.78;;;11.70;99.90;;;;;;5047680;28;20038;-78
2022/01/02 12:20:50;;;;;;;6.05;2.47;;;11.60;99.90;;;;;;5062960;28;20105;-79
2022/01/02 12:23:34;;;;;;;5.30;2.08;;;11.60;99.90;;;;;;5067060;28;20124;-78
2022/01/02 12:26:09;;;;;;;5.00;3.30;;;11.60;99.90;;;;;;5042728;28;20084;-81
2022/01/02 12:28:41;;;;;;;5.90;2.55;;;11.60;99.90;;;;;;5052023;28;20052;-81
2022/01/02 12:31:10;;;;;;;5.63;2.38;;;11.70;99.90;;;;;;5050213;28;20056;-79
2022/01/02 12:33:36;;;;;;;3.63;1.95;;;11.70;99.90;;;;;;5041196;28;20063;-82
2022/01/02 12:36:08;;;;;;;5.18;2.70;;;11.70;99.90;;;;;;5040046;28;20107;-82
2022/01/02 12:38:45;;;;;;;5.90;1.75;;;11.70;99.90;;;;;;5047036;28;20052;-84
2022/01/02 12:41:12;;;;;;;7.22;2.65;;;11.70;99.90;;;;;;5050401;28;20049;-78
2022/01/02 12:43:37;;;;;;;9.50;2.58;;;11.70;99.90;;;;;;5049307;28;20462;-80
2022/01/02 12:46:03;;;;;;;3.20;1.60;;;11.80;99.90;;;;;;5050919;28;20235;-81
2022/01/02 12:48:34;;;;;;;8.48;2.30;;;11.80;99.90;;;;;;5048465;28;20175;-79
2022/01/02 12:51:12;;;;;;;2.17;1.35;;;11.80;99.90;;;;;;5044433;28;20041;-80
2022/01/02 12:53:38;;;;;;;5.88;1.52;;;11.80;99.90;;;;;;5039807;28;20044;-83
2022/01/02 12:56:05;;;;;;;3.05;1.58;;;11.70;99.90;;;;;;5033794;28;20045;-83
2022/01/02 12:58:33;;;;;;;7.00;2.10;;;11.70;99.90;;;;;;5050188;28;20474;-84
2022/01/02 13:01:04;;;;;;;2.70;1.42;;;11.70;99.90;;;;;;5044044;28;20045;-81
2022/01/02 13:03:30;;;;;;;3.05;1.70;;;12.00;99.90;;;;;;5048580;28;20390;-81
2022/01/02 13:05:56;;;;;;;5.70;1.80;;;11.60;99.90;;;;;;5043299;28;20041;-80
2022/01/02 13:08:23;;;;;;;;;;;11.60;99.90;;;;;;5051158;28;20051;-83
2022/01/02 13:10:48;;;;;;;3.10;1.55;;;11.60;99.90;;;;;;5050544;28;20440;-79